createdAt,value
2022-12-19T00:00:17.028Z,87.87
2022-12-19T00:03:05.967Z,87.91
2022-12-19T00:05:44.199Z,87.89
2022-12-19T00:08:17.355Z,87.92
2022-12-19T00:10:56.220Z,87.96
2022-12-19T00:13:26.647Z,88.04
2022-12-19T00:15:59.989Z,88.06
2022-12-19T00:18:28.729Z,88.05
2022-12-19T00:20:59.977Z,88.05
2022-12-19T00:23:31.035Z,88.05
2022-12-19T00:26:09.697Z,88.03
2022-12-19T00:28:39.043Z,88.00
2022-12-19T00:31:08.312Z,87.94
2022-12-19T00:33:43.514Z,87.94
2022-12-19T00:36:24.286Z,88.01
2022-12-19T00:38:57.914Z,88.01
2022-12-19T00:41:35.392Z,88.09
2022-12-19T00:44:10.203Z,88.14
2022-12-19T00:46:39.180Z,88.19
2022-12-19T00:49:07.975Z,88.24
2022-12-19T00:51:37.877Z,88.33
2022-12-19T00:54:12.359Z,88.31
2022-12-19T00:56:41.916Z,88.32
2022-12-19T00:59:11.008Z,88.28
2022-12-19T01:01:42.053Z,88.07
2022-12-19T01:04:28.256Z,88.08
2022-12-19T01:07:01.921Z,88.07
2022-12-19T01:09:35.229Z,88.12
2022-12-19T01:12:33.873Z,88.16
2022-12-19T01:15:04.888Z,88.20
2022-12-19T01:17:37.026Z,88.27
2022-12-19T01:20:19.111Z,88.22
2022-12-19T01:23:00.513Z,88.36
2022-12-19T01:25:29.636Z,88.32
2022-12-19T01:27:58.517Z,88.27
2022-12-19T01:30:29.175Z,88.23
2022-12-19T01:33:00.846Z,88.18
2022-12-19T01:35:29.797Z,88.25
2022-12-19T01:38:06.569Z,88.31
2022-12-19T01:40:48.114Z,88.22
2022-12-19T01:43:17.598Z,88.15
2022-12-19T01:45:50.844Z,88.21
2022-12-19T01:48:28.365Z,88.18
2022-12-19T01:51:01.371Z,88.18
2022-12-19T01:53:46.438Z,88.22
2022-12-19T01:56:29.201Z,88.26
2022-12-19T01:59:06.511Z,88.23
2022-12-19T02:01:51.011Z,88.30
2022-12-19T02:04:24.893Z,88.26
2022-12-19T02:06:58.413Z,88.22
2022-12-19T02:09:27.827Z,88.14
2022-12-19T02:11:58.727Z,88.09
2022-12-19T02:14:29.205Z,88.11
2022-12-19T02:17:05.880Z,88.18
2022-12-19T02:19:58.985Z,88.06
2022-12-19T02:22:41.364Z,88.01
2022-12-19T02:25:31.419Z,87.83
2022-12-19T02:28:38.681Z,87.73
2022-12-19T02:31:17.871Z,87.57
2022-12-19T02:34:08.458Z,87.64
2022-12-19T02:36:46.829Z,87.50
2022-12-19T02:39:26.573Z,87.44
2022-12-19T02:41:59.574Z,87.40
2022-12-19T02:44:33.352Z,87.38
2022-12-19T02:47:05.459Z,87.41
2022-12-19T02:49:37.163Z,87.47
2022-12-19T02:52:12.908Z,87.46
2022-12-19T02:54:46.494Z,87.46
2022-12-19T02:57:24.410Z,87.48
2022-12-19T03:00:06.172Z,87.55
2022-12-19T03:02:51.191Z,87.57
2022-12-19T03:05:42.076Z,87.58
2022-12-19T03:08:24.378Z,87.57
2022-12-19T03:11:00.388Z,87.64
2022-12-19T03:13:34.217Z,87.74
2022-12-19T03:16:08.333Z,87.72
2022-12-19T03:18:38.717Z,87.75
2022-12-19T03:21:15.532Z,87.82
2022-12-19T03:23:53.181Z,87.90
2022-12-19T03:26:31.140Z,87.95
2022-12-19T03:29:07.812Z,87.98
2022-12-19T03:31:38.982Z,88.04
2022-12-19T03:34:16.838Z,88.09
2022-12-19T03:36:54.663Z,88.14
2022-12-19T03:39:29.896Z,88.22
2022-12-19T03:42:22.287Z,88.23
2022-12-19T03:44:54.034Z,88.29
2022-12-19T03:47:34.500Z,88.34
2022-12-19T03:50:07.081Z,88.38
2022-12-19T03:52:45.466Z,88.40
2022-12-19T03:55:24.424Z,88.46
2022-12-19T03:57:58.317Z,88.51
2022-12-19T04:00:29.740Z,88.53
2022-12-19T04:03:00.698Z,88.65
2022-12-19T04:05:30.087Z,88.62
2022-12-19T04:08:06.158Z,88.73
2022-12-19T04:10:48.001Z,88.73
2022-12-19T04:13:27.027Z,88.81
2022-12-19T04:16:06.942Z,88.81
2022-12-19T04:18:37.620Z,88.84
2022-12-19T04:21:15.119Z,88.87
2022-12-19T04:23:49.708Z,88.89
2022-12-19T04:26:31.070Z,88.90
2022-12-19T04:29:04.055Z,88.82
2022-12-19T04:31:33.022Z,88.85
2022-12-19T04:34:02.316Z,88.91
2022-12-19T04:36:32.473Z,88.90
2022-12-19T04:39:01.498Z,88.95
2022-12-19T04:41:31.065Z,88.98
2022-12-19T04:44:00.537Z,89.02
2022-12-19T04:46:32.821Z,89.09
2022-12-19T04:49:02.617Z,89.10
2022-12-19T04:51:31.752Z,89.07
2022-12-19T04:54:02.936Z,89.08
2022-12-19T04:56:31.763Z,89.11
2022-12-19T04:59:02.131Z,89.13
2022-12-19T05:01:31.545Z,89.23
2022-12-19T05:04:04.349Z,89.29
2022-12-19T05:06:34.035Z,89.43
2022-12-19T05:09:03.296Z,89.47
2022-12-19T05:11:32.823Z,89.60
2022-12-19T05:14:02.313Z,89.59
2022-12-19T05:16:31.504Z,89.57
2022-12-19T05:19:01.927Z,89.57
2022-12-19T05:21:31.005Z,89.56
2022-12-19T05:24:00.362Z,89.53
2022-12-19T05:26:29.314Z,89.56
2022-12-19T05:28:58.445Z,89.46
2022-12-19T05:31:27.545Z,89.42
2022-12-19T05:33:56.469Z,89.43
2022-12-19T05:36:32.127Z,89.36
2022-12-19T05:39:04.312Z,89.34
2022-12-19T05:41:33.376Z,89.35
2022-12-19T05:44:03.200Z,89.30
2022-12-19T05:46:32.396Z,89.26
2022-12-19T05:49:01.425Z,89.30
2022-12-19T05:51:30.859Z,89.26
2022-12-19T05:54:02.888Z,89.27
2022-12-19T05:56:31.918Z,89.25
2022-12-19T05:59:03.683Z,89.16
2022-12-19T06:01:37.068Z,89.17
2022-12-19T06:04:07.877Z,89.13
2022-12-19T06:06:38.707Z,89.11
2022-12-19T06:09:08.960Z,89.10
2022-12-19T06:11:38.143Z,89.08
2022-12-19T06:14:07.164Z,89.07
2022-12-19T06:16:39.624Z,89.07
2022-12-19T06:19:09.512Z,89.02
2022-12-19T06:21:45.449Z,89.03
2022-12-19T06:24:18.086Z,89.02
2022-12-19T06:26:47.360Z,89.00
2022-12-19T06:29:18.618Z,88.98
2022-12-19T06:31:47.461Z,88.95
2022-12-19T06:34:46.955Z,88.91
2022-12-19T06:37:09.195Z,88.89
2022-12-19T06:39:38.483Z,88.84
2022-12-19T06:42:24.886Z,88.83
2022-12-19T06:44:57.286Z,88.78
2022-12-19T06:47:28.545Z,88.79
2022-12-19T06:49:58.907Z,88.75
2022-12-19T06:52:27.666Z,88.75
2022-12-19T06:54:57.277Z,88.71
2022-12-19T06:57:26.894Z,88.72
2022-12-19T06:59:57.969Z,88.71
2022-12-19T07:02:31.392Z,88.68
2022-12-19T07:05:10.166Z,88.64
2022-12-19T07:07:40.752Z,88.67
2022-12-19T07:10:12.887Z,88.62
2022-12-19T07:12:41.838Z,88.60
2022-12-19T07:15:12.937Z,88.59
2022-12-19T07:17:42.179Z,88.52
2022-12-19T07:20:16.070Z,88.49
2022-12-19T07:22:45.894Z,88.41
2022-12-19T07:25:17.146Z,88.39
2022-12-19T07:27:47.745Z,88.33
2022-12-19T07:30:17.407Z,88.27
2022-12-19T07:32:46.484Z,88.26
2022-12-19T07:35:17.863Z,88.24
2022-12-19T07:37:53.840Z,88.22
2022-12-19T07:40:23.402Z,88.22
2022-12-19T07:42:52.406Z,88.24
2022-12-19T07:45:21.413Z,88.23
2022-12-19T07:47:53.414Z,88.20
2022-12-19T07:50:22.303Z,88.15
2022-12-19T07:52:51.229Z,88.12
2022-12-19T07:55:23.767Z,88.15
2022-12-19T07:57:55.841Z,88.05
2022-12-19T08:00:24.866Z,87.92
2022-12-19T08:02:53.683Z,87.90
2022-12-19T08:05:24.209Z,87.91
2022-12-19T08:07:56.476Z,87.89
2022-12-19T08:10:25.246Z,87.75
2022-12-19T08:12:54.001Z,87.71
2022-12-19T08:15:25.403Z,87.65
2022-12-19T08:17:56.027Z,87.63
2022-12-19T08:20:24.763Z,87.46
2022-12-19T08:22:53.580Z,87.48
2022-12-19T08:25:22.703Z,87.43
2022-12-19T08:27:51.476Z,87.29
2022-12-19T08:30:20.276Z,87.26
2022-12-19T08:32:49.097Z,87.11
2022-12-19T08:35:19.155Z,87.01
2022-12-19T08:37:48.303Z,86.95
2022-12-19T08:40:18.195Z,86.88
2022-12-19T08:42:47.085Z,86.61
2022-12-19T08:45:18.741Z,86.19
2022-12-19T08:47:47.897Z,86.11
2022-12-19T08:50:19.380Z,85.81
2022-12-19T08:52:48.178Z,85.37
2022-12-19T08:55:18.226Z,85.65
2022-12-19T08:57:49.475Z,85.15
2022-12-19T09:00:20.243Z,84.35
2022-12-19T09:02:55.214Z,84.44
2022-12-19T09:05:57.446Z,84.10
2022-12-19T09:08:12.453Z,84.56
2022-12-19T09:10:47.659Z,83.54
2022-12-19T09:13:17.601Z,83.26
2022-12-19T09:15:48.762Z,82.20
2022-12-19T09:18:18.405Z,82.43
2022-12-19T09:20:53.097Z,82.21
2022-12-19T09:23:22.790Z,81.72
2022-12-19T09:25:51.989Z,81.60
2022-12-19T09:28:28.485Z,81.55
2022-12-19T09:30:58.546Z,81.13
2022-12-19T09:33:27.963Z,81.25
2022-12-19T09:35:57.468Z,81.57
2022-12-19T09:38:29.387Z,80.69
2022-12-19T09:44:16.184Z,80.32
2022-12-19T09:46:51.582Z,81.15
2022-12-19T09:49:24.405Z,81.06
2022-12-19T09:52:00.573Z,80.93
2022-12-19T09:54:35.564Z,79.51
2022-12-19T09:57:12.352Z,74.75
2022-12-19T09:59:50.135Z,69.31
2022-12-19T10:02:39.105Z,63.28
2022-12-19T10:05:46.623Z,61.88
2022-12-19T10:08:23.653Z,53.95
2022-12-19T10:12:39.193Z,50.22
2022-12-19T10:14:21.116Z,46.95
2022-12-19T10:17:23.815Z,44.94
2022-12-19T10:20:12.037Z,44.64
2022-12-19T10:22:52.710Z,41.68
2022-12-19T10:25:43.119Z,46.04
2022-12-19T10:28:32.683Z,42.05
2022-12-19T10:31:17.268Z,39.17
2022-12-19T10:33:57.826Z,42.18
2022-12-19T10:37:11.918Z,42.41
2022-12-19T10:39:29.172Z,40.81
2022-12-19T10:42:08.154Z,37.73
2022-12-19T10:44:40.297Z,37.87
2022-12-19T10:47:15.732Z,36.75
2022-12-19T10:49:44.816Z,37.84
2022-12-19T10:52:47.198Z,37.71
2022-12-19T10:55:47.522Z,36.93
2022-12-19T10:58:22.779Z,38.25
2022-12-19T11:01:16.877Z,39.22
2022-12-19T11:03:53.407Z,41.65
2022-12-19T11:06:44.119Z,44.42
2022-12-19T11:09:30.416Z,46.79
2022-12-19T11:13:32.266Z,52.68
2022-12-19T11:20:42.165Z,52.48
2022-12-19T11:27:29.564Z,53.58
2022-12-19T11:29:34.765Z,55.69
2022-12-19T11:29:37.684Z,57.31
2022-12-19T11:29:41.739Z,58.29
2022-12-19T11:32:44.859Z,60.69
2022-12-19T11:35:24.810Z,62.43
2022-12-19T11:38:07.777Z,62.91
2022-12-19T11:40:53.058Z,63.16
2022-12-19T11:43:47.992Z,64.11
2022-12-19T11:46:30.440Z,64.41
2022-12-19T11:49:11.297Z,64.90
2022-12-19T11:51:49.088Z,65.82
2022-12-19T11:54:26.859Z,66.25
2022-12-19T11:57:12.114Z,66.44
2022-12-19T11:59:42.988Z,66.63
2022-12-19T12:02:39.201Z,66.53
2022-12-19T12:05:44.378Z,66.86
2022-12-19T12:11:05.309Z,66.72
2022-12-19T12:19:18.836Z,67.07
2022-12-19T12:24:53.591Z,66.94
2022-12-19T12:31:04.227Z,67.23
2022-12-19T12:31:18.864Z,67.34
2022-12-19T12:31:47.164Z,67.99
2022-12-19T12:31:47.730Z,68.03
2022-12-19T12:32:04.001Z,67.62
2022-12-19T12:35:35.105Z,68.18
2022-12-19T12:39:35.775Z,68.28
2022-12-19T12:42:16.111Z,68.58
2022-12-19T12:44:51.127Z,68.75
2022-12-19T12:47:24.112Z,68.71
2022-12-19T12:50:16.735Z,69.08
2022-12-19T12:52:57.596Z,69.26
2022-12-19T12:55:29.972Z,69.43
2022-12-19T12:57:59.373Z,69.72
2022-12-19T13:00:30.426Z,69.85
2022-12-19T13:03:11.258Z,69.97
2022-12-19T13:06:03.272Z,70.32
2022-12-19T13:08:49.091Z,70.47
2022-12-19T13:12:06.125Z,70.87
2022-12-19T13:14:50.160Z,71.10
2022-12-19T13:17:47.414Z,71.02
2022-12-19T13:20:48.260Z,71.18
2022-12-19T13:23:34.148Z,71.66
2022-12-19T13:26:04.798Z,71.81
2022-12-19T13:28:42.978Z,71.75
2022-12-19T13:31:22.767Z,71.91
2022-12-19T13:34:19.224Z,72.19
2022-12-19T13:39:50.749Z,72.29
2022-12-19T13:40:13.575Z,72.87
2022-12-19T13:43:30.688Z,72.67
2022-12-19T13:46:02.136Z,73.26
2022-12-19T13:48:34.003Z,73.46
2022-12-19T13:51:10.934Z,73.74
2022-12-19T13:53:45.027Z,73.76
2022-12-19T13:56:19.008Z,73.83
2022-12-19T13:58:53.413Z,74.23
2022-12-19T14:01:29.476Z,74.50
2022-12-19T14:04:07.884Z,74.83
2022-12-19T14:06:43.162Z,74.72
2022-12-19T14:11:28.262Z,74.71
2022-12-19T14:13:48.157Z,74.95
2022-12-19T14:15:58.734Z,75.32
2022-12-19T14:18:45.039Z,75.39
2022-12-19T14:22:05.734Z,75.94
2022-12-19T14:24:25.925Z,75.93
2022-12-19T14:28:20.125Z,76.23
2022-12-19T14:30:30.464Z,76.32
2022-12-19T14:33:44.776Z,76.67
2022-12-19T14:36:09.964Z,76.79
2022-12-19T14:39:23.276Z,76.90
2022-12-19T14:42:13.651Z,76.76
2022-12-19T14:53:34.303Z,77.10
2022-12-19T14:53:51.781Z,77.56
2022-12-19T14:54:16.122Z,77.53
2022-12-19T14:57:25.327Z,77.75
2022-12-19T15:01:09.607Z,77.71
2022-12-19T15:03:23.718Z,78.17
2022-12-19T15:07:05.231Z,78.06
2022-12-19T15:10:58.596Z,78.02
2022-12-19T15:14:20.714Z,78.15
2022-12-19T15:15:34.269Z,79.00
2022-12-19T15:18:18.039Z,78.18
2022-12-19T15:21:00.987Z,78.64
2022-12-19T15:23:34.009Z,78.26
2022-12-19T15:26:08.470Z,79.07
2022-12-19T15:28:43.313Z,79.38
2022-12-19T15:31:36.635Z,80.01
2022-12-19T15:34:39.253Z,79.33
2022-12-19T15:37:10.275Z,79.25
2022-12-19T15:39:41.379Z,79.61
2022-12-19T15:42:22.619Z,79.53
2022-12-19T15:44:57.821Z,79.88
2022-12-19T15:47:32.177Z,79.59
2022-12-19T15:50:14.058Z,80.65
2022-12-19T15:55:35.496Z,80.60
2022-12-19T15:58:06.944Z,80.72
2022-12-19T16:00:37.424Z,80.99
2022-12-19T16:03:27.199Z,81.16
2022-12-19T16:05:57.153Z,80.58
2022-12-19T16:08:27.901Z,80.42
2022-12-19T16:11:07.109Z,80.87
2022-12-19T16:13:36.851Z,80.26
2022-12-19T16:16:15.767Z,80.56
2022-12-19T16:18:47.038Z,81.03
2022-12-19T16:21:33.702Z,80.76
2022-12-19T16:24:06.640Z,80.62
2022-12-19T16:26:40.261Z,80.32
2022-12-19T16:29:19.966Z,80.57
2022-12-19T16:31:49.276Z,80.52
2022-12-19T16:34:24.546Z,81.07
2022-12-19T16:36:54.350Z,80.95
2022-12-19T16:39:23.229Z,81.17
2022-12-19T16:41:52.232Z,80.96
2022-12-19T16:44:23.211Z,81.26
2022-12-19T16:46:54.773Z,81.14
2022-12-19T16:49:24.640Z,81.30
2022-12-19T16:51:54.342Z,81.25
2022-12-19T16:54:31.887Z,81.73
2022-12-19T16:57:06.076Z,81.45
2022-12-19T16:59:41.196Z,81.36
2022-12-19T17:02:46.506Z,81.72
2022-12-19T17:05:29.367Z,81.69
2022-12-19T17:08:10.518Z,81.61
2022-12-19T17:10:48.335Z,81.77
2022-12-19T17:13:19.274Z,81.58
2022-12-19T17:15:57.088Z,81.61
2022-12-19T17:18:34.820Z,81.81
2022-12-19T17:21:11.856Z,82.02
2022-12-19T17:23:48.355Z,82.09
2022-12-19T17:26:29.663Z,82.08
2022-12-19T17:28:58.519Z,82.03
2022-12-19T17:31:37.439Z,82.11
2022-12-19T17:34:26.530Z,82.15
2022-12-19T17:36:58.052Z,81.98
2022-12-19T17:39:29.815Z,82.00
2022-12-19T17:42:05.905Z,81.91
2022-12-19T17:44:38.150Z,81.93
2022-12-19T17:47:07.667Z,82.01
2022-12-19T17:49:36.842Z,82.01
2022-12-19T17:52:14.216Z,81.99
2022-12-19T17:54:44.837Z,81.95
2022-12-19T17:57:19.054Z,81.98
2022-12-19T17:59:49.919Z,81.92
2022-12-19T18:02:26.530Z,81.82
2022-12-19T18:05:01.154Z,81.90
2022-12-19T18:07:34.615Z,81.91
2022-12-19T18:10:14.384Z,81.91
2022-12-19T18:12:45.700Z,81.56
2022-12-19T18:15:15.803Z,81.68
2022-12-19T18:17:47.928Z,81.78
2022-12-19T18:20:31.206Z,81.83
2022-12-19T18:23:19.056Z,81.80
2022-12-19T18:25:54.823Z,81.68
2022-12-19T18:28:28.928Z,81.75
2022-12-19T18:31:07.122Z,81.63
2022-12-19T18:33:41.045Z,81.61
2022-12-19T18:36:36.358Z,81.53
2022-12-19T18:39:06.770Z,81.52
2022-12-19T18:41:39.050Z,81.53
2022-12-19T18:44:08.126Z,81.58
2022-12-19T18:46:41.965Z,81.61
2022-12-19T18:49:14.618Z,81.51
2022-12-19T18:51:44.706Z,81.50
2022-12-19T18:54:19.854Z,81.53
2022-12-19T18:56:49.288Z,81.48
2022-12-19T18:59:21.969Z,81.42
2022-12-19T19:01:51.860Z,81.42
2022-12-19T19:04:24.507Z,81.46
2022-12-19T19:06:56.942Z,81.41
2022-12-19T19:09:28.810Z,81.36
2022-12-19T19:15:12.584Z,81.30
2022-12-19T19:17:43.714Z,81.26
2022-12-19T19:20:14.536Z,81.40
2022-12-19T19:22:44.568Z,81.38
2022-12-19T19:25:18.279Z,81.33
2022-12-19T19:27:48.073Z,81.19
2022-12-19T19:30:21.230Z,81.21
2022-12-19T19:32:57.063Z,81.24
2022-12-19T19:35:29.819Z,81.33
2022-12-19T19:38:15.789Z,81.29
2022-12-19T19:40:48.413Z,81.28
2022-12-19T19:43:20.487Z,81.19
2022-12-19T19:45:51.314Z,81.11
2022-12-19T19:48:21.636Z,81.22
2022-12-19T19:50:50.693Z,81.17
2022-12-19T19:53:21.318Z,81.25
2022-12-19T19:55:56.396Z,81.12
2022-12-19T19:58:25.497Z,81.03
2022-12-19T20:00:55.981Z,80.95
2022-12-19T20:03:26.502Z,81.03
2022-12-19T20:06:14.188Z,81.10
2022-12-19T20:08:43.338Z,81.15
2022-12-19T20:11:13.155Z,81.12
2022-12-19T20:13:45.688Z,81.10
2022-12-19T20:16:19.817Z,81.04
2022-12-19T20:18:50.239Z,80.97
2022-12-19T20:21:24.444Z,80.93
2022-12-19T20:23:55.970Z,80.86
2022-12-19T20:26:29.721Z,81.03
2022-12-19T20:28:58.644Z,81.07
2022-12-19T20:31:27.798Z,81.04
2022-12-19T20:33:56.748Z,80.99
2022-12-19T20:36:26.149Z,80.90
2022-12-19T20:38:55.568Z,80.85
2022-12-19T20:41:30.763Z,80.62
2022-12-19T20:44:03.563Z,80.66
2022-12-19T20:46:35.190Z,80.57
2022-12-19T20:49:04.409Z,80.58
2022-12-19T20:51:34.338Z,80.60
2022-12-19T20:54:04.653Z,80.58
2022-12-19T20:56:34.670Z,80.52
2022-12-19T20:59:09.902Z,80.60
2022-12-19T21:01:40.931Z,80.66
2022-12-19T21:04:10.313Z,80.59
2022-12-19T21:06:40.978Z,80.58
2022-12-19T21:09:14.324Z,80.72
2022-12-19T21:11:43.169Z,80.65
2022-12-19T21:14:12.233Z,80.52
2022-12-19T21:16:41.174Z,80.57
2022-12-19T21:19:11.289Z,80.60
2022-12-19T21:21:40.600Z,80.71
2022-12-19T21:24:10.417Z,80.71
2022-12-19T21:26:40.363Z,80.70
2022-12-19T21:29:11.364Z,80.83
2022-12-19T21:31:40.665Z,80.79
2022-12-19T21:34:12.467Z,80.78
2022-12-19T21:36:41.476Z,81.03
2022-12-19T21:39:12.585Z,81.09
2022-12-19T21:41:44.400Z,81.24
2022-12-19T21:44:13.143Z,81.48
2022-12-19T21:46:42.034Z,81.51
2022-12-19T21:49:14.372Z,81.84
2022-12-19T21:51:43.120Z,81.88
2022-12-19T21:54:12.094Z,82.00
2022-12-19T21:56:41.888Z,82.10
2022-12-19T21:59:14.023Z,82.04
2022-12-19T22:01:43.889Z,82.36
2022-12-19T22:04:15.381Z,82.40
2022-12-19T22:06:44.902Z,82.77
2022-12-19T22:09:15.429Z,82.85
2022-12-19T22:11:44.772Z,83.09
2022-12-19T22:14:15.472Z,83.33
2022-12-19T22:16:51.602Z,83.02
2022-12-19T22:19:22.475Z,83.22
2022-12-19T22:21:51.371Z,83.36
2022-12-19T22:24:24.323Z,83.49
2022-12-19T22:26:53.149Z,83.49
2022-12-19T22:29:25.621Z,83.44
2022-12-19T22:31:54.532Z,83.42
2022-12-19T22:34:23.596Z,83.77
2022-12-19T22:36:54.416Z,83.79
2022-12-19T22:39:24.094Z,83.72
2022-12-19T22:41:52.957Z,83.80
2022-12-19T22:44:26.920Z,83.83
2022-12-19T22:46:55.627Z,83.83
2022-12-19T22:49:24.556Z,83.99
2022-12-19T22:51:53.371Z,84.34
2022-12-19T22:54:24.311Z,84.38
2022-12-19T22:56:53.365Z,84.38
2022-12-19T22:59:22.303Z,84.44
2022-12-19T23:01:52.572Z,84.60
2022-12-19T23:04:21.817Z,84.88
2022-12-19T23:06:51.152Z,85.01
2022-12-19T23:09:20.998Z,85.08
2022-12-19T23:11:50.297Z,85.14
2022-12-19T23:14:20.395Z,85.20
2022-12-19T23:16:54.690Z,85.66
2022-12-19T23:19:23.656Z,85.43
2022-12-19T23:21:52.524Z,85.61
2022-12-19T23:24:22.085Z,85.80
2022-12-19T23:26:51.008Z,85.81
2022-12-19T23:29:22.122Z,85.93
2022-12-19T23:31:51.179Z,86.19
2022-12-19T23:34:21.345Z,86.21
2022-12-19T23:39:41.709Z,86.65
2022-12-19T23:42:10.563Z,86.55
2022-12-19T23:44:39.656Z,86.60
2022-12-19T23:47:08.372Z,86.77
2022-12-19T23:49:37.081Z,86.87
2022-12-19T23:52:06.235Z,86.97
2022-12-19T23:54:35.631Z,87.10
2022-12-19T23:57:04.487Z,87.23
2022-12-19T23:59:34.174Z,87.43
